»·PEaware :: N3149W KJSY-O46

N3149W :: KJSY-O46

FLIGHT INFORMATION

Flight Status: Arrived
Operator: Privately registered:
United States
More flights under this callsign
Pilot: Alex C. (14758)
Aircraft: BEECH AIRCRAFT BEECH AIRLINER
(B190)
More flights by this aircraft type
Origin: KJSY Joseph State
United States
Destination: O46 Weed
United States
More flights between these airports :: More routes between these airports
Route: BEAMO YUMIE PASST
File this flight plan on PilotEdge
Remarks:
Altitude:
(Current/Filed)
20,000ft
Speed:
(Current/Filed)
280kts
Departed: 16-Apr-19 01:40 PM
Arrived: 16-Apr-19 02:59 PM
Distance/Time
Traveled:
324nm/1:19
Distance/Time
To Go:
Arrived

Flight Plot

Page will automatically refresh every two minutes.

Flight plan parsing failed; only flown route is shown


Map Options




Map Legend


Flown Route
Filed Route
Departure Airport
Arrival Airport
Navaid (VOR, NDB)
Fix

Horizontal Profiles

Position Reports

Time Latitude Longitude Heading Altitude Ground
Speed
16-Apr-19 13:31 45.362951 -117.257893 345 4126ft 0kts
16-Apr-19 13:32 45.362952 -117.257893 345 4126ft 0kts
16-Apr-19 13:33 45.362952 -117.257893 345 4126ft 0kts
16-Apr-19 13:34 45.363183 -117.257958 7 4126ft 0kts
16-Apr-19 13:35 45.361327 -117.255871 167 4126ft 22kts
16-Apr-19 13:36 45.355411 -117.253942 166 4126ft 26kts
16-Apr-19 13:37 45.352579 -117.252238 73 4126ft 0kts
16-Apr-19 13:38 45.352579 -117.252238 73 4126ft 0kts
16-Apr-19 13:39 45.363472 -117.255094 342 4208ft 129kts
16-Apr-19 13:40 45.392282 -117.288336 260 5978ft 153kts
16-Apr-19 13:41 45.382449 -117.355428 253 8337ft 162kts
16-Apr-19 13:42 45.372934 -117.417217 251 10303ft 170kts
16-Apr-19 13:43 45.362940 -117.479732 250 12127ft 173kts
16-Apr-19 13:44 45.352313 -117.545512 250 13843ft 176kts
16-Apr-19 13:45 45.341887 -117.609872 249 15319ft 182kts
16-Apr-19 13:46 45.331701 -117.672203 248 16497ft 202kts
16-Apr-19 13:47 45.318386 -117.752854 250 16511ft 241kts
16-Apr-19 13:48 45.279551 -117.822642 220 16508ft 245kts
16-Apr-19 13:49 45.233686 -117.885587 219 16507ft 249kts
16-Apr-19 13:50 45.187607 -117.947239 219 16504ft 248kts
16-Apr-19 13:51 45.137523 -118.013912 219 16504ft 248kts
16-Apr-19 13:52 45.087072 -118.080863 219 16503ft 248kts
16-Apr-19 13:53 45.036587 -118.147679 219 16479ft 249kts
16-Apr-19 13:54 44.986003 -118.214466 219 16502ft 248kts
16-Apr-19 13:55 44.935209 -118.281308 219 16479ft 251kts
16-Apr-19 13:56 44.883764 -118.348912 219 16482ft 254kts
16-Apr-19 13:57 44.831252 -118.417716 219 16482ft 255kts
16-Apr-19 13:58 44.778823 -118.486231 219 16481ft 255kts
16-Apr-19 13:59 44.726549 -118.554643 219 16498ft 253kts
16-Apr-19 14:00 44.674816 -118.621886 219 16498ft 250kts
16-Apr-19 14:01 44.624596 -118.686990 218 16498ft 249kts
16-Apr-19 14:02 44.573042 -118.753679 218 16498ft 249kts
16-Apr-19 14:03 44.521189 -118.820560 218 16498ft 252kts
16-Apr-19 14:04 44.468687 -118.888143 218 16497ft 253kts
16-Apr-19 14:05 44.416248 -118.955461 218 16497ft 254kts
16-Apr-19 14:06 44.363587 -119.022889 218 16496ft 254kts
16-Apr-19 14:07 44.316394 -119.098217 225 16496ft 256kts
16-Apr-19 14:08 44.270074 -119.175087 225 16496ft 256kts
16-Apr-19 14:09 44.223471 -119.252181 226 16496ft 255kts
16-Apr-19 14:10 44.177497 -119.328659 226 16496ft 256kts
16-Apr-19 14:11 44.131082 -119.405285 226 16495ft 256kts
16-Apr-19 14:12 44.084550 -119.481840 226 16495ft 256kts
16-Apr-19 14:13 44.037986 -119.558238 226 16495ft 256kts
16-Apr-19 14:14 43.991184 -119.634819 226 16494ft 256kts
16-Apr-19 14:15 43.944758 -119.710574 226 16494ft 256kts
16-Apr-19 14:16 43.897902 -119.786916 225 16504ft 257kts
16-Apr-19 14:17 43.850546 -119.863720 225 16509ft 260kts
16-Apr-19 14:18 43.802692 -119.941185 225 16508ft 261kts
16-Apr-19 14:19 43.754688 -120.018691 225 16508ft 261kts
16-Apr-19 14:20 43.707058 -120.095273 226 16490ft 258kts
16-Apr-19 14:21 43.659676 -120.171459 226 16489ft 255kts
16-Apr-19 14:22 43.612649 -120.246813 226 16489ft 255kts
16-Apr-19 14:23 43.565139 -120.322615 227 16489ft 260kts
16-Apr-19 14:24 43.516809 -120.399715 227 16479ft 263kts
16-Apr-19 14:25 43.468319 -120.476774 227 16479ft 264kts
16-Apr-19 14:26 43.419751 -120.553747 227 16479ft 264kts
16-Apr-19 14:28 43.371242 -120.630424 227 16479ft 264kts
16-Apr-19 14:29 43.313937 -120.693257 214 16479ft 262kts
16-Apr-19 14:30 43.254718 -120.752373 214 16478ft 262kts
16-Apr-19 14:31 43.194346 -120.812307 214 16479ft 267kts
16-Apr-19 14:32 43.132928 -120.873110 214 16512ft 269kts
16-Apr-19 14:33 43.071582 -120.933659 214 16552ft 272kts
16-Apr-19 14:34 43.009274 -120.995015 214 16552ft 274kts
16-Apr-19 14:35 42.946580 -121.056601 214 16551ft 275kts
16-Apr-19 14:36 42.884292 -121.117634 214 16544ft 275kts
16-Apr-19 14:37 42.821765 -121.178741 214 16544ft 275kts
16-Apr-19 14:38 42.761642 -121.238007 214 16544ft 276kts
16-Apr-19 14:39 42.705262 -121.293171 212 16531ft 274kts
16-Apr-19 14:40 42.610907 -121.384439 213 14974ft 269kts
16-Apr-19 14:41 42.493727 -121.497545 214 13077ft 271kts
16-Apr-19 14:42 42.375198 -121.611451 215 11168ft 272kts
16-Apr-19 14:43 42.263076 -121.718745 215 9541ft 255kts
16-Apr-19 14:44 42.210535 -121.768901 216 9508ft 251kts
16-Apr-19 14:45 42.106479 -121.867992 217 9504ft 250kts
16-Apr-19 14:45 42.019652 -121.950228 217 9502ft 248kts
16-Apr-19 14:47 41.971493 -122.032372 236 9501ft 240kts
16-Apr-19 14:48 41.926119 -122.116553 236 8896ft 228kts
16-Apr-19 14:48 41.854239 -122.249318 236 7428ft 215kts
16-Apr-19 14:49 41.817611 -122.316919 235 7050ft 210kts
16-Apr-19 14:51 41.777900 -122.389787 234 5941ft 211kts
16-Apr-19 14:51 41.734616 -122.469059 231 5104ft 209kts
16-Apr-19 14:52 41.681765 -122.482300 177 5092ft 195kts
16-Apr-19 14:53 41.636489 -122.478878 176 5089ft 147kts
16-Apr-19 14:54 41.596258 -122.480043 187 5099ft 149kts
16-Apr-19 14:55 41.556011 -122.484824 170 4524ft 147kts
16-Apr-19 14:56 41.520727 -122.472338 162 3734ft 130kts
16-Apr-19 14:57 41.487893 -122.460529 155 3061ft 123kts
16-Apr-19 14:58 41.470457 -122.450576 157 2942ft 30kts
16-Apr-19 14:59 41.468859 -122.449597 340 2942ft 0kts
16-Apr-19 15:00 41.468859 -122.449597 340 2942ft 0kts
16-Apr-19 15:01 41.468859 -122.449597 340 2942ft 0kts
16-Apr-19 15:02 41.468859 -122.449597 340 2942ft 0kts
16-Apr-19 15:03 41.468859 -122.449597 340 2942ft 0kts
16-Apr-19 15:04 41.468859 -122.449597 340 2942ft 0kts
16-Apr-19 15:05 41.468859 -122.449597 340 2942ft 0kts
16-Apr-19 15:06 41.468859 -122.449597 340 2942ft 0kts
16-Apr-19 15:07 41.468859 -122.449597 340 2942ft 0kts
16-Apr-19 15:08 41.468859 -122.449597 340 2942ft 0kts
16-Apr-19 15:09 41.468859 -122.449597 340 2942ft 0kts
16-Apr-19 15:10 41.468859 -122.449597 340 2942ft 0kts
16-Apr-19 15:11 41.468859 -122.449597 340 2942ft 0kts
16-Apr-19 15:12 41.469681 -122.450055 339 2942ft 46kts
16-Apr-19 15:13 41.503927 -122.467729 341 4985ft 150kts

Navigation Log

Ident Type
Flight plan parsing failed, navigation log unavailable